createdAt,value
2023-04-27T00:00:39.212Z,70.96
2023-04-27T00:03:07.750Z,70.81
2023-04-27T00:05:37.144Z,70.75
2023-04-27T00:08:05.448Z,70.96
2023-04-27T00:10:33.687Z,69.93
2023-04-27T00:13:02.398Z,70.90
2023-04-27T00:15:31.755Z,70.38
2023-04-27T00:17:59.984Z,70.66
2023-04-27T00:20:28.606Z,70.96
2023-04-27T00:22:56.775Z,70.98
2023-04-27T00:25:25.038Z,71.61
2023-04-27T00:27:53.010Z,71.72
2023-04-27T00:30:21.174Z,71.09
2023-04-27T00:32:50.594Z,71.38
2023-04-27T00:35:18.743Z,71.85
2023-04-27T00:37:46.679Z,72.06
2023-04-27T00:40:14.972Z,72.14
2023-04-27T00:42:42.976Z,71.90
2023-04-27T00:45:13.506Z,72.63
2023-04-27T00:47:41.704Z,72.42
2023-04-27T00:50:12.274Z,71.68
2023-04-27T00:52:40.898Z,72.87
2023-04-27T00:55:09.979Z,73.05
2023-04-27T00:57:39.120Z,73.82
2023-04-27T01:00:09.012Z,74.07
2023-04-27T01:02:37.839Z,73.95
2023-04-27T01:05:08.401Z,73.90
2023-04-27T01:07:40.544Z,74.58
2023-04-27T01:10:09.831Z,74.38
2023-04-27T01:12:37.997Z,74.50
2023-04-27T01:15:07.757Z,75.39
2023-04-27T01:17:35.988Z,75.20
2023-04-27T01:20:07.580Z,75.87
2023-04-27T01:22:36.186Z,75.67
2023-04-27T01:25:06.447Z,75.34
2023-04-27T01:27:34.391Z,76.13
2023-04-27T01:30:02.466Z,75.90
2023-04-27T01:32:30.470Z,76.18
2023-04-27T01:34:58.484Z,76.33
2023-04-27T01:37:28.028Z,77.23
2023-04-27T01:39:56.282Z,76.38
2023-04-27T01:42:26.199Z,76.34
2023-04-27T01:44:54.649Z,75.89
2023-04-27T01:47:22.624Z,76.09
2023-04-27T01:49:51.338Z,76.66
2023-04-27T01:52:19.292Z,76.79
2023-04-27T01:54:47.354Z,76.54
2023-04-27T01:57:16.330Z,76.44
2023-04-27T01:59:45.741Z,76.01
2023-04-27T02:02:13.783Z,76.05
2023-04-27T02:04:43.486Z,76.29
2023-04-27T02:07:11.981Z,75.88
2023-04-27T02:09:40.104Z,75.75
2023-04-27T02:12:08.390Z,76.11
2023-04-27T02:14:39.076Z,76.76
2023-04-27T02:17:08.494Z,75.90
2023-04-27T02:19:36.471Z,75.93
2023-04-27T02:22:04.859Z,76.49
2023-04-27T02:24:32.908Z,76.71
2023-04-27T02:27:00.924Z,76.74
2023-04-27T02:29:31.859Z,77.03
2023-04-27T02:32:00.717Z,76.65
2023-04-27T02:34:30.185Z,76.95
2023-04-27T02:36:58.201Z,75.93
2023-04-27T02:39:26.341Z,76.84
2023-04-27T02:41:54.298Z,76.68
2023-04-27T02:44:22.236Z,76.85
2023-04-27T02:46:51.284Z,76.16
2023-04-27T02:49:19.244Z,76.90
2023-04-27T02:51:48.548Z,76.42
2023-04-27T02:54:16.560Z,75.61
2023-04-27T02:56:44.553Z,76.21
2023-04-27T02:59:12.668Z,77.34
2023-04-27T03:01:40.850Z,77.11
2023-04-27T03:04:09.133Z,77.12
2023-04-27T03:06:37.300Z,76.77
2023-04-27T03:09:06.678Z,76.63
2023-04-27T03:11:36.808Z,76.95
2023-04-27T03:14:05.669Z,76.87
2023-04-27T03:16:33.817Z,76.75
2023-04-27T03:19:02.237Z,76.70
2023-04-27T03:21:30.169Z,77.06
2023-04-27T03:23:58.069Z,76.27
2023-04-27T03:26:27.596Z,76.16
2023-04-27T03:28:55.948Z,76.35
2023-04-27T03:31:23.923Z,76.94
2023-04-27T03:33:53.178Z,77.21
2023-04-27T03:36:21.106Z,77.83
2023-04-27T03:38:49.080Z,76.82
2023-04-27T03:41:17.073Z,77.20
2023-04-27T03:43:47.685Z,76.49
2023-04-27T03:46:15.630Z,77.20
2023-04-27T03:48:44.334Z,76.95
2023-04-27T03:51:12.536Z,76.89
2023-04-27T03:53:40.576Z,77.48
2023-04-27T03:56:08.807Z,77.50
2023-04-27T03:58:37.149Z,77.14
2023-04-27T04:01:06.754Z,77.01
2023-04-27T04:03:34.934Z,76.88
2023-04-27T04:06:03.837Z,76.25
2023-04-27T04:08:33.081Z,76.54
2023-04-27T04:11:01.177Z,76.30
2023-04-27T04:13:29.380Z,76.56
2023-04-27T04:16:07.337Z,76.01
2023-04-27T04:18:36.206Z,76.09
2023-04-27T04:21:04.892Z,75.86
2023-04-27T04:23:33.047Z,75.43
2023-04-27T04:26:02.331Z,75.36
2023-04-27T04:28:30.771Z,75.52
2023-04-27T04:30:59.146Z,75.02
2023-04-27T04:33:28.629Z,75.20
2023-04-27T04:35:56.692Z,73.89
2023-04-27T04:38:24.803Z,73.74
2023-04-27T04:40:53.163Z,73.44
2023-04-27T04:43:21.563Z,73.50
2023-04-27T04:45:49.701Z,73.98
2023-04-27T04:48:17.882Z,70.70
2023-04-27T04:50:47.332Z,66.84
2023-04-27T04:53:15.498Z,65.00
2023-04-27T04:55:43.620Z,63.99
2023-04-27T04:58:11.652Z,59.78
2023-04-27T05:00:39.622Z,59.39
2023-04-27T05:03:08.309Z,58.26
2023-04-27T05:05:36.561Z,56.96
2023-04-27T05:08:06.258Z,57.24
2023-04-27T05:10:34.357Z,56.70
2023-04-27T05:13:02.475Z,56.75
2023-04-27T05:15:30.612Z,59.02
2023-04-27T05:17:58.625Z,58.70
2023-04-27T05:20:26.814Z,57.45
2023-04-27T05:22:54.959Z,57.45
2023-04-27T05:25:24.274Z,58.03
2023-04-27T05:27:52.311Z,59.67
2023-04-27T05:30:20.409Z,62.33
2023-04-27T05:32:48.511Z,63.26
2023-04-27T05:35:16.718Z,63.84
2023-04-27T05:37:44.710Z,63.34
2023-04-27T05:40:13.186Z,64.66
2023-04-27T05:42:42.617Z,65.10
2023-04-27T05:45:11.527Z,65.45
2023-04-27T05:47:39.771Z,64.93
2023-04-27T05:50:08.591Z,64.85
2023-04-27T05:52:38.244Z,64.89
2023-04-27T05:55:07.742Z,65.69
2023-04-27T05:57:35.906Z,64.52
2023-04-27T06:00:10.672Z,64.66
2023-04-27T06:02:38.865Z,63.93
2023-04-27T06:05:08.164Z,64.88
2023-04-27T06:07:37.628Z,64.08
2023-04-27T06:10:06.219Z,63.63
2023-04-27T06:12:34.320Z,61.07
2023-04-27T06:15:03.897Z,61.39
2023-04-27T06:17:33.357Z,61.83
2023-04-27T06:20:01.573Z,61.96
2023-04-27T06:22:29.547Z,61.30
2023-04-27T06:24:57.436Z,60.77
2023-04-27T06:27:25.432Z,59.39
2023-04-27T06:29:53.359Z,58.79
2023-04-27T06:32:21.412Z,58.82
2023-04-27T06:34:50.905Z,59.09
2023-04-27T06:37:19.031Z,57.54
2023-04-27T06:39:47.335Z,58.01
2023-04-27T06:42:15.453Z,54.88
2023-04-27T06:44:43.378Z,54.29
2023-04-27T06:47:11.347Z,51.67
2023-04-27T06:49:39.326Z,50.24
2023-04-27T06:52:08.648Z,49.36
2023-04-27T06:54:36.979Z,48.86
2023-04-27T06:57:05.138Z,47.24
2023-04-27T06:59:33.157Z,47.20
2023-04-27T07:02:01.515Z,47.04
2023-04-27T07:04:30.349Z,48.30
2023-04-27T07:06:58.500Z,48.33
2023-04-27T07:09:29.007Z,47.89
2023-04-27T07:11:59.004Z,49.53
2023-04-27T07:14:26.999Z,47.99
2023-04-27T07:16:54.949Z,45.40
2023-04-27T07:19:22.986Z,45.70
2023-04-27T07:21:52.071Z,43.86
2023-04-27T07:24:20.422Z,46.86
2023-04-27T07:26:49.863Z,48.63
2023-04-27T07:29:26.401Z,49.39
2023-04-27T07:31:56.113Z,49.80
2023-04-27T07:34:24.440Z,51.18
2023-04-27T07:36:54.365Z,51.13
2023-04-27T07:39:22.733Z,51.64
2023-04-27T07:41:52.765Z,53.07
2023-04-27T07:44:21.077Z,53.00
2023-04-27T07:46:50.210Z,51.75
2023-04-27T07:49:18.442Z,49.75
2023-04-27T07:51:46.473Z,48.46
2023-04-27T07:54:14.440Z,45.65
2023-04-27T07:56:43.806Z,43.75
2023-04-27T07:59:15.664Z,42.33
2023-04-27T08:01:44.098Z,44.55
2023-04-27T08:04:13.227Z,44.25
2023-04-27T08:06:42.069Z,44.67
2023-04-27T08:09:10.265Z,45.09
2023-04-27T08:11:38.574Z,46.78
2023-04-27T08:14:09.104Z,43.95
2023-04-27T08:16:38.622Z,43.11
2023-04-27T08:19:06.629Z,43.65
2023-04-27T08:21:34.551Z,43.68
2023-04-27T08:24:02.768Z,42.64
2023-04-27T08:26:30.809Z,42.83
2023-04-27T08:29:00.012Z,42.26
2023-04-27T08:31:28.180Z,41.52
2023-04-27T08:33:58.473Z,39.57
2023-04-27T08:36:27.973Z,40.08
2023-04-27T08:38:56.153Z,40.75
2023-04-27T08:41:25.352Z,40.69
2023-04-27T08:43:54.573Z,39.97
2023-04-27T08:46:25.368Z,38.58
2023-04-27T08:48:54.220Z,39.61
2023-04-27T08:51:25.567Z,38.71
2023-04-27T08:53:56.084Z,38.01
2023-04-27T08:56:25.609Z,38.45
2023-04-27T08:58:53.953Z,38.17
2023-04-27T09:01:22.225Z,40.58
2023-04-27T09:03:51.542Z,42.29
2023-04-27T09:06:30.045Z,43.65
2023-04-27T09:09:00.360Z,44.18
2023-04-27T09:11:32.792Z,43.01
2023-04-27T09:14:01.709Z,43.80
2023-04-27T09:16:32.000Z,44.99
2023-04-27T09:19:00.268Z,43.88
2023-04-27T09:21:29.487Z,41.88
2023-04-27T09:23:59.253Z,40.54
2023-04-27T09:26:28.919Z,42.79
2023-04-27T09:29:00.222Z,43.52
2023-04-27T09:31:33.135Z,43.37
2023-04-27T09:34:01.202Z,41.23
2023-04-27T09:36:32.376Z,40.18
2023-04-27T09:39:05.488Z,39.80
2023-04-27T09:41:33.671Z,40.49
2023-04-27T09:44:03.002Z,42.44
2023-04-27T09:46:34.190Z,42.71
2023-04-27T09:49:05.623Z,43.61
2023-04-27T09:51:35.043Z,43.35
2023-04-27T09:54:05.816Z,42.58
2023-04-27T09:56:45.163Z,42.99
2023-04-27T09:59:31.408Z,43.99
2023-04-27T10:02:17.085Z,43.83
2023-04-27T10:05:10.866Z,45.02
2023-04-27T10:07:40.500Z,44.90
2023-04-27T10:10:18.699Z,45.48
2023-04-27T10:12:57.631Z,45.40
2023-04-27T10:15:29.929Z,45.67
2023-04-27T10:18:04.572Z,44.98
2023-04-27T10:20:33.929Z,44.91
2023-04-27T10:23:02.027Z,42.84
2023-04-27T10:25:39.064Z,40.99
2023-04-27T10:28:08.187Z,40.68
2023-04-27T10:30:37.880Z,41.65
2023-04-27T10:33:07.766Z,41.97
2023-04-27T10:35:36.932Z,41.03
2023-04-27T10:38:09.523Z,40.83
2023-04-27T10:40:39.660Z,40.43
2023-04-27T10:43:12.094Z,41.46
2023-04-27T10:45:40.419Z,42.78
2023-04-27T10:48:08.593Z,43.26
2023-04-27T10:50:37.316Z,43.72
2023-04-27T10:53:06.638Z,42.96
2023-04-27T10:55:36.299Z,42.57
2023-04-27T10:58:06.233Z,42.42
2023-04-27T11:00:36.678Z,41.98
2023-04-27T11:03:17.115Z,41.97
2023-04-27T11:05:46.258Z,41.62
2023-04-27T11:08:16.062Z,42.67
2023-04-27T11:10:46.353Z,43.23
2023-04-27T11:13:17.417Z,42.32
2023-04-27T11:15:49.645Z,42.79
2023-04-27T11:18:19.199Z,43.26
2023-04-27T11:20:49.997Z,43.15
2023-04-27T11:23:25.850Z,43.04
2023-04-27T11:25:54.535Z,42.72
2023-04-27T11:28:24.703Z,42.32
2023-04-27T11:30:59.679Z,41.68
2023-04-27T11:33:28.225Z,42.78
2023-04-27T11:35:56.812Z,42.56
2023-04-27T11:38:25.472Z,42.81
2023-04-27T11:41:05.357Z,43.02
2023-04-27T11:43:35.702Z,42.41
2023-04-27T11:46:08.227Z,41.58
2023-04-27T11:48:38.588Z,42.34
2023-04-27T11:51:07.150Z,42.53
2023-04-27T11:53:36.592Z,42.22
2023-04-27T11:56:06.282Z,42.19
2023-04-27T11:58:36.853Z,41.69
2023-04-27T12:01:05.157Z,41.72
2023-04-27T12:03:33.455Z,41.85
2023-04-27T12:06:16.159Z,43.26
2023-04-27T12:08:49.593Z,42.45
2023-04-27T12:11:17.547Z,42.71
2023-04-27T12:13:47.338Z,42.21
2023-04-27T12:16:15.671Z,42.85
2023-04-27T12:18:43.752Z,41.75
2023-04-27T12:21:12.170Z,41.44
2023-04-27T12:23:40.199Z,41.38
2023-04-27T12:26:08.271Z,40.68
2023-04-27T12:28:37.189Z,40.17
2023-04-27T12:31:06.955Z,40.57
2023-04-27T12:33:35.232Z,40.50
2023-04-27T12:36:03.310Z,40.93
2023-04-27T12:38:31.361Z,41.51
2023-04-27T12:41:00.806Z,42.31
2023-04-27T12:43:29.083Z,41.93
2023-04-27T12:45:57.574Z,41.37
2023-04-27T12:48:27.187Z,41.84
2023-04-27T12:50:55.247Z,42.40
2023-04-27T12:53:23.253Z,42.55
2023-04-27T12:55:51.366Z,42.14
2023-04-27T12:58:19.458Z,41.92
2023-04-27T13:00:47.578Z,41.32
2023-04-27T13:03:15.713Z,41.92
2023-04-27T13:05:45.714Z,41.56
2023-04-27T13:08:13.619Z,40.75
2023-04-27T13:10:42.622Z,39.96
2023-04-27T13:13:10.630Z,40.87
2023-04-27T13:15:38.826Z,41.86
2023-04-27T13:18:07.138Z,41.96
2023-04-27T13:20:35.330Z,42.57
2023-04-27T13:23:06.713Z,42.25
2023-04-27T13:25:35.255Z,42.15
2023-04-27T13:28:03.737Z,42.15
2023-04-27T13:30:32.138Z,41.91
2023-04-27T13:33:14.146Z,42.04
2023-04-27T13:35:48.528Z,42.25
2023-04-27T13:38:18.017Z,41.45
2023-04-27T13:40:46.037Z,42.21
2023-04-27T13:43:16.467Z,41.78
2023-04-27T13:45:45.474Z,41.69
2023-04-27T13:48:13.530Z,42.23
2023-04-27T13:50:41.825Z,41.63
2023-04-27T13:53:09.857Z,42.30
2023-04-27T13:55:39.281Z,42.08
2023-04-27T13:58:07.245Z,42.37
2023-04-27T14:00:35.610Z,42.78
2023-04-27T14:03:04.904Z,42.78
2023-04-27T14:05:33.144Z,42.34
2023-04-27T14:08:01.261Z,42.66
2023-04-27T14:10:29.339Z,42.37
2023-04-27T14:12:59.508Z,41.36
2023-04-27T14:15:28.213Z,42.12
2023-04-27T14:17:56.363Z,42.18
2023-04-27T14:20:24.669Z,42.63
2023-04-27T14:22:52.806Z,41.77
2023-04-27T14:25:20.858Z,42.22
2023-04-27T14:27:48.907Z,42.27
2023-04-27T14:30:18.427Z,42.00
2023-04-27T14:32:46.464Z,42.47
2023-04-27T14:35:14.454Z,42.44
2023-04-27T14:37:42.387Z,41.53
2023-04-27T14:40:11.471Z,41.63
2023-04-27T14:42:39.575Z,41.46
2023-04-27T14:45:08.778Z,41.29
2023-04-27T14:47:38.422Z,42.08
2023-04-27T14:50:07.693Z,41.73
2023-04-27T14:52:36.042Z,42.35
2023-04-27T14:55:04.074Z,42.16
2023-04-27T14:57:32.069Z,42.26
2023-04-27T15:00:00.609Z,42.78
2023-04-27T15:02:29.337Z,41.42
2023-04-27T15:05:00.415Z,42.38
2023-04-27T15:07:28.632Z,41.83
2023-04-27T15:09:56.593Z,42.82
2023-04-27T15:12:24.683Z,42.07
2023-04-27T15:14:53.854Z,42.79
2023-04-27T15:17:21.955Z,42.58
2023-04-27T15:19:51.676Z,42.59
2023-04-27T15:22:21.071Z,42.95
2023-04-27T15:24:49.017Z,43.56
2023-04-27T15:27:16.903Z,43.41
2023-04-27T15:29:45.078Z,43.77
2023-04-27T15:32:13.079Z,43.89
2023-04-27T15:34:42.788Z,44.02
2023-04-27T15:37:10.860Z,44.33
2023-04-27T15:39:40.250Z,43.99
2023-04-27T15:42:09.469Z,43.22
2023-04-27T15:44:41.819Z,43.41
2023-04-27T15:47:10.009Z,42.95
2023-04-27T15:49:46.201Z,43.56
2023-04-27T15:52:17.820Z,43.08
2023-04-27T15:54:47.178Z,43.81
2023-04-27T15:57:15.120Z,44.49
2023-04-27T15:59:43.338Z,44.75
2023-04-27T16:02:11.479Z,44.77
2023-04-27T16:04:39.870Z,44.63
2023-04-27T16:07:08.276Z,44.20
2023-04-27T16:09:36.689Z,44.54
2023-04-27T16:12:06.878Z,44.75
2023-04-27T16:14:34.955Z,44.59
2023-04-27T16:17:03.224Z,44.36
2023-04-27T16:19:31.400Z,44.31
2023-04-27T16:22:00.290Z,44.72
2023-04-27T16:24:30.574Z,44.95
2023-04-27T16:26:58.890Z,45.80
2023-04-27T16:29:28.250Z,45.91
2023-04-27T16:31:56.261Z,46.46
2023-04-27T16:34:24.420Z,46.86
2023-04-27T16:36:52.631Z,46.54
2023-04-27T16:39:20.639Z,46.75
2023-04-27T16:41:49.535Z,46.75
2023-04-27T16:44:17.528Z,47.10
2023-04-27T16:46:47.639Z,46.95
2023-04-27T16:49:16.810Z,47.57
2023-04-27T16:51:45.641Z,47.64
2023-04-27T16:54:16.481Z,47.88
2023-04-27T16:56:45.925Z,48.06
2023-04-27T16:59:14.010Z,48.22
2023-04-27T17:01:42.448Z,47.92
2023-04-27T17:04:12.645Z,48.91
2023-04-27T17:06:42.280Z,48.88
2023-04-27T17:09:10.382Z,49.14
2023-04-27T17:11:38.565Z,49.72
2023-04-27T17:14:06.607Z,49.59
2023-04-27T17:16:34.576Z,50.30
2023-04-27T17:19:02.512Z,50.28
2023-04-27T17:21:32.602Z,50.16
2023-04-27T17:24:01.934Z,50.75
2023-04-27T17:26:30.488Z,50.83
2023-04-27T17:29:00.164Z,51.20
2023-04-27T17:31:28.652Z,51.20
2023-04-27T17:33:56.998Z,51.16
2023-04-27T17:36:26.788Z,51.19
2023-04-27T17:38:56.433Z,51.76
2023-04-27T17:41:24.546Z,52.16
2023-04-27T17:43:53.022Z,51.64
2023-04-27T17:46:21.258Z,52.36
2023-04-27T17:48:49.241Z,52.38
2023-04-27T17:51:17.602Z,52.60
2023-04-27T17:53:46.368Z,52.66
2023-04-27T17:56:16.135Z,52.60
2023-04-27T17:58:44.791Z,52.73
2023-04-27T18:01:13.723Z,53.31
2023-04-27T18:03:43.356Z,53.45
2023-04-27T18:06:11.741Z,53.52
2023-04-27T18:08:40.263Z,53.71
2023-04-27T18:11:09.949Z,53.89
2023-04-27T18:13:39.298Z,53.79
2023-04-27T18:16:07.911Z,53.87
2023-04-27T18:18:36.264Z,54.09
2023-04-27T18:21:04.260Z,54.49
2023-04-27T18:23:35.500Z,54.45
2023-04-27T18:26:03.598Z,54.59
2023-04-27T18:28:31.651Z,54.86
2023-04-27T18:31:01.066Z,54.99
2023-04-27T18:33:29.279Z,55.17
2023-04-27T18:35:57.427Z,55.17
2023-04-27T18:38:25.612Z,55.53
2023-04-27T18:40:53.670Z,55.53
2023-04-27T18:43:21.745Z,55.68
2023-04-27T18:45:51.579Z,55.62
2023-04-27T18:48:24.793Z,55.94
2023-04-27T18:50:52.949Z,56.24
2023-04-27T18:53:21.634Z,56.35
2023-04-27T18:55:50.105Z,56.17
2023-04-27T18:58:18.224Z,56.39
2023-04-27T19:00:46.218Z,56.67
2023-04-27T19:03:14.450Z,56.57
2023-04-27T19:05:44.521Z,57.01
2023-04-27T19:08:12.824Z,57.37
2023-04-27T19:10:42.274Z,57.35
2023-04-27T19:13:12.415Z,57.47
2023-04-27T19:15:40.506Z,57.83
2023-04-27T19:18:11.211Z,57.86
2023-04-27T19:20:40.823Z,57.98
2023-04-27T19:23:12.755Z,57.74
2023-04-27T19:25:41.463Z,58.32
2023-04-27T19:28:11.050Z,57.81
2023-04-27T19:30:39.295Z,58.00
2023-04-27T19:33:08.758Z,58.47
2023-04-27T19:35:36.808Z,58.48
2023-04-27T19:38:06.051Z,59.09
2023-04-27T19:40:36.996Z,59.00
2023-04-27T19:43:07.136Z,58.68
2023-04-27T19:45:35.509Z,58.89
2023-04-27T19:48:03.579Z,59.07
2023-04-27T19:50:31.919Z,58.58
2023-04-27T19:52:59.884Z,58.93
2023-04-27T19:55:28.418Z,59.36
2023-04-27T19:57:57.975Z,59.07
2023-04-27T20:00:25.970Z,59.52
2023-04-27T20:02:54.596Z,59.71
2023-04-27T20:05:24.433Z,59.87
2023-04-27T20:07:53.182Z,60.05
2023-04-27T20:10:21.210Z,59.82
2023-04-27T20:12:56.882Z,60.46
2023-04-27T20:15:26.957Z,60.60
2023-04-27T20:17:55.144Z,60.27
2023-04-27T20:20:23.286Z,60.86
2023-04-27T20:22:51.412Z,60.85
2023-04-27T20:25:22.611Z,61.02
2023-04-27T20:27:51.492Z,61.44
2023-04-27T20:30:19.630Z,61.36
2023-04-27T20:32:49.005Z,61.26
2023-04-27T20:35:17.094Z,61.26
2023-04-27T20:37:45.212Z,61.27
2023-04-27T20:40:17.805Z,61.21
2023-04-27T20:42:46.479Z,61.20
2023-04-27T20:45:14.831Z,60.79
2023-04-27T20:47:42.995Z,60.78
2023-04-27T20:50:12.544Z,61.80
2023-04-27T20:52:40.530Z,61.42
2023-04-27T20:55:08.846Z,61.72
2023-04-27T20:57:36.865Z,61.15
2023-04-27T21:00:05.500Z,62.07
2023-04-27T21:02:33.558Z,61.93
2023-04-27T21:05:03.305Z,61.79
2023-04-27T21:07:32.803Z,61.69
2023-04-27T21:10:06.074Z,62.90
2023-04-27T21:12:34.509Z,62.48
2023-04-27T21:15:02.591Z,62.24
2023-04-27T21:17:30.703Z,63.03
2023-04-27T21:19:58.670Z,62.99
2023-04-27T21:22:26.738Z,62.44
2023-04-27T21:24:57.160Z,63.01
2023-04-27T21:27:25.315Z,62.13
2023-04-27T21:29:53.347Z,63.08
2023-04-27T21:32:21.510Z,62.72
2023-04-27T21:34:49.752Z,63.64
2023-04-27T21:37:17.707Z,63.03
2023-04-27T21:39:45.700Z,63.43
2023-04-27T21:42:16.310Z,64.44
2023-04-27T21:44:44.404Z,63.40
2023-04-27T21:47:12.500Z,63.78
2023-04-27T21:49:40.858Z,63.48
2023-04-27T21:52:08.922Z,63.56
2023-04-27T21:54:37.095Z,64.27
2023-04-27T21:57:05.302Z,65.26
2023-04-27T21:59:34.746Z,65.42
2023-04-27T22:02:06.674Z,65.21
2023-04-27T22:04:35.948Z,65.27
2023-04-27T22:07:04.193Z,64.63
2023-04-27T22:09:32.212Z,65.27
2023-04-27T22:12:00.241Z,64.98
2023-04-27T22:14:28.424Z,66.14
2023-04-27T22:16:58.392Z,64.90
2023-04-27T22:19:26.592Z,65.67
2023-04-27T22:21:54.787Z,65.21
2023-04-27T22:24:22.881Z,65.51
2023-04-27T22:26:50.969Z,65.03
2023-04-27T22:29:19.297Z,65.01
2023-04-27T22:31:47.418Z,64.75
2023-04-27T22:34:17.219Z,64.81
2023-04-27T22:36:45.568Z,64.75
2023-04-27T22:39:13.566Z,65.21
2023-04-27T22:41:41.668Z,64.89
2023-04-27T22:44:09.877Z,65.00
2023-04-27T22:46:38.185Z,64.89
2023-04-27T22:49:06.405Z,65.02
2023-04-27T22:51:36.585Z,64.83
2023-04-27T22:54:04.774Z,64.43
2023-04-27T22:56:33.061Z,63.36
2023-04-27T22:59:01.065Z,64.28
2023-04-27T23:01:29.080Z,63.73
2023-04-27T23:03:57.159Z,63.48
2023-04-27T23:06:25.249Z,63.41
2023-04-27T23:08:54.734Z,63.75
2023-04-27T23:11:24.037Z,63.32
2023-04-27T23:13:52.137Z,63.39
2023-04-27T23:16:20.170Z,63.01
2023-04-27T23:18:48.132Z,64.09
2023-04-27T23:21:16.104Z,63.36
2023-04-27T23:23:44.088Z,64.84
2023-04-27T23:26:16.748Z,63.93
2023-04-27T23:28:44.975Z,64.28
2023-04-27T23:31:13.074Z,63.55
2023-04-27T23:33:41.038Z,64.37
2023-04-27T23:36:09.435Z,63.92
2023-04-27T23:38:37.338Z,63.96
2023-04-27T23:41:05.589Z,63.98
2023-04-27T23:43:35.095Z,64.74
2023-04-27T23:46:03.391Z,64.98
2023-04-27T23:48:31.602Z,64.86
2023-04-27T23:51:01.678Z,65.14
2023-04-27T23:53:30.008Z,65.41
2023-04-27T23:55:58.255Z,65.68
2023-04-27T23:58:26.377Z,65.18
